sensor_id;sensor_type;location;lat;lon;timestamp;P1;durP1;ratioP1;P2;durP2;ratioP2
49450;SDS011;35336;48.400;10.886;2022-08-06T00:00:05;9.30;;;5.23;;
49450;SDS011;35336;48.400;10.886;2022-08-06T00:00:21;9.93;;;5.00;;
49450;SDS011;35336;48.400;10.886;2022-08-06T00:00:36;12.47;;;5.50;;
49450;SDS011;35336;48.400;10.886;2022-08-06T00:00:52;11.38;;;5.70;;
49450;SDS011;35336;48.400;10.886;2022-08-06T00:01:07;8.27;;;5.93;;
49450;SDS011;35336;48.400;10.886;2022-08-06T00:01:23;9.48;;;6.22;;
49450;SDS011;35336;48.400;10.886;2022-08-06T00:01:38;11.47;;;6.23;;
49450;SDS011;35336;48.400;10.886;2022-08-06T00:01:54;14.30;;;6.40;;
49450;SDS011;35336;48.400;10.886;2022-08-06T00:02:09;12.55;;;6.57;;
49450;SDS011;35336;48.400;10.886;2022-08-06T00:02:26;8.57;;;6.28;;
49450;SDS011;35336;48.400;10.886;2022-08-06T00:02:43;7.70;;;5.72;;
49450;SDS011;35336;48.400;10.886;2022-08-06T00:02:58;8.97;;;6.47;;
49450;SDS011;35336;48.400;10.886;2022-08-06T00:03:14;9.68;;;7.03;;
49450;SDS011;35336;48.400;10.886;2022-08-06T00:03:29;11.53;;;7.40;;
49450;SDS011;35336;48.400;10.886;2022-08-06T00:03:45;11.63;;;7.50;;
49450;SDS011;35336;48.400;10.886;2022-08-06T00:04:01;10.38;;;6.85;;
49450;SDS011;35336;48.400;10.886;2022-08-06T00:04:16;8.33;;;6.40;;
49450;SDS011;35336;48.400;10.886;2022-08-06T00:04:32;8.40;;;6.80;;
49450;SDS011;35336;48.400;10.886;2022-08-06T00:04:47;9.55;;;7.10;;
49450;SDS011;35336;48.400;10.886;2022-08-06T00:05:03;9.23;;;6.97;;
49450;SDS011;35336;48.400;10.886;2022-08-06T00:05:19;9.45;;;6.93;;
49450;SDS011;35336;48.400;10.886;2022-08-06T00:05:35;9.65;;;7.40;;
49450;SDS011;35336;48.400;10.886;2022-08-06T00:05:50;10.70;;;8.07;;
49450;SDS011;35336;48.400;10.886;2022-08-06T00:06:06;10.27;;;8.37;;
49450;SDS011;35336;48.400;10.886;2022-08-06T00:06:21;11.63;;;8.45;;
49450;SDS011;35336;48.400;10.886;2022-08-06T00:06:37;13.15;;;8.45;;
49450;SDS011;35336;48.400;10.886;2022-08-06T00:06:52;11.47;;;8.33;;
49450;SDS011;35336;48.400;10.886;2022-08-06T00:07:08;10.80;;;8.53;;
49450;SDS011;35336;48.400;10.886;2022-08-06T00:07:24;12.15;;;9.10;;
49450;SDS011;35336;48.400;10.886;2022-08-06T00:07:40;11.45;;;9.20;;
49450;SDS011;35336;48.400;10.886;2022-08-06T00:07:55;10.80;;;9.02;;
49450;SDS011;35336;48.400;10.886;2022-08-06T00:08:12;11.25;;;9.07;;
49450;SDS011;35336;48.400;10.886;2022-08-06T00:08:27;14.40;;;9.33;;
49450;SDS011;35336;48.400;10.886;2022-08-06T00:08:42;12.88;;;9.38;;
49450;SDS011;35336;48.400;10.886;2022-08-06T00:08:58;11.93;;;9.67;;
49450;SDS011;35336;48.400;10.886;2022-08-06T00:09:13;13.38;;;10.07;;
49450;SDS011;35336;48.400;10.886;2022-08-06T00:09:29;12.33;;;10.00;;
49450;SDS011;35336;48.400;10.886;2022-08-06T00:09:45;12.15;;;10.07;;
49450;SDS011;35336;48.400;10.886;2022-08-06T00:10:00;11.40;;;9.93;;
49450;SDS011;35336;48.400;10.886;2022-08-06T00:10:16;14.50;;;10.30;;
49450;SDS011;35336;48.400;10.886;2022-08-06T00:10:33;15.20;;;10.60;;
49450;SDS011;35336;48.400;10.886;2022-08-06T00:10:48;11.35;;;9.98;;
49450;SDS011;35336;48.400;10.886;2022-08-06T00:11:04;14.63;;;10.13;;
49450;SDS011;35336;48.400;10.886;2022-08-06T00:11:19;16.05;;;10.48;;
49450;SDS011;35336;48.400;10.886;2022-08-06T00:11:34;13.87;;;10.70;;
49450;SDS011;35336;48.400;10.886;2022-08-06T00:11:50;13.00;;;10.30;;
49450;SDS011;35336;48.400;10.886;2022-08-06T00:12:05;12.13;;;9.77;;
49450;SDS011;35336;48.400;10.886;2022-08-06T00:12:21;12.60;;;10.00;;
49450;SDS011;35336;48.400;10.886;2022-08-06T00:12:36;13.70;;;10.30;;
49450;SDS011;35336;48.400;10.886;2022-08-06T00:12:52;13.63;;;10.57;;
49450;SDS011;35336;48.400;10.886;2022-08-06T00:13:07;14.32;;;10.55;;
49450;SDS011;35336;48.400;10.886;2022-08-06T00:13:23;15.63;;;10.97;;
49450;SDS011;35336;48.400;10.886;2022-08-06T00:13:38;14.77;;;10.98;;
49450;SDS011;35336;48.400;10.886;2022-08-06T00:13:54;13.57;;;10.50;;
49450;SDS011;35336;48.400;10.886;2022-08-06T00:14:09;13.27;;;10.23;;
49450;SDS011;35336;48.400;10.886;2022-08-06T00:14:25;13.47;;;10.03;;
49450;SDS011;35336;48.400;10.886;2022-08-06T00:14:41;15.88;;;10.43;;
49450;SDS011;35336;48.400;10.886;2022-08-06T00:14:57;16.63;;;10.13;;
49450;SDS011;35336;48.400;10.886;2022-08-06T00:15:12;14.95;;;9.95;;
49450;SDS011;35336;48.400;10.886;2022-08-06T00:15:28;13.97;;;10.47;;
49450;SDS011;35336;48.400;10.886;2022-08-06T00:15:44;13.63;;;10.80;;
49450;SDS011;35336;48.400;10.886;2022-08-06T00:16:00;12.95;;;10.90;;
49450;SDS011;35336;48.400;10.886;2022-08-06T00:16:15;14.17;;;10.87;;
49450;SDS011;35336;48.400;10.886;2022-08-06T00:16:30;13.82;;;10.85;;
49450;SDS011;35336;48.400;10.886;2022-08-06T00:16:46;13.80;;;10.83;;
49450;SDS011;35336;48.400;10.886;2022-08-06T00:17:01;13.90;;;10.75;;
49450;SDS011;35336;48.400;10.886;2022-08-06T00:17:17;12.53;;;10.53;;
49450;SDS011;35336;48.400;10.886;2022-08-06T00:17:34;12.40;;;10.00;;
49450;SDS011;35336;48.400;10.886;2022-08-06T00:17:50;13.50;;;10.50;;
49450;SDS011;35336;48.400;10.886;2022-08-06T00:18:06;13.23;;;10.88;;
49450;SDS011;35336;48.400;10.886;2022-08-06T00:18:21;12.40;;;10.00;;
49450;SDS011;35336;48.400;10.886;2022-08-06T00:18:37;13.37;;;10.27;;
49450;SDS011;35336;48.400;10.886;2022-08-06T00:18:52;14.60;;;10.55;;
49450;SDS011;35336;48.400;10.886;2022-08-06T00:19:08;14.13;;;10.50;;
49450;SDS011;35336;48.400;10.886;2022-08-06T00:19:23;13.85;;;10.90;;
49450;SDS011;35336;48.400;10.886;2022-08-06T00:19:39;13.50;;;11.07;;
49450;SDS011;35336;48.400;10.886;2022-08-06T00:19:55;14.87;;;11.27;;
49450;SDS011;35336;48.400;10.886;2022-08-06T00:20:11;16.07;;;10.70;;
49450;SDS011;35336;48.400;10.886;2022-08-06T00:20:27;14.57;;;10.17;;
49450;SDS011;35336;48.400;10.886;2022-08-06T00:20:43;12.13;;;10.33;;
49450;SDS011;35336;48.400;10.886;2022-08-06T00:20:58;13.50;;;10.47;;
49450;SDS011;35336;48.400;10.886;2022-08-06T00:21:14;13.52;;;10.32;;
49450;SDS011;35336;48.400;10.886;2022-08-06T00:21:30;12.70;;;10.13;;
49450;SDS011;35336;48.400;10.886;2022-08-06T00:21:46;14.07;;;10.55;;
49450;SDS011;35336;48.400;10.886;2022-08-06T00:22:01;16.37;;;10.50;;
49450;SDS011;35336;48.400;10.886;2022-08-06T00:22:17;15.57;;;10.35;;
49450;SDS011;35336;48.400;10.886;2022-08-06T00:22:32;15.83;;;10.33;;
49450;SDS011;35336;48.400;10.886;2022-08-06T00:22:47;14.45;;;10.13;;
49450;SDS011;35336;48.400;10.886;2022-08-06T00:23:03;11.50;;;9.80;;
49450;SDS011;35336;48.400;10.886;2022-08-06T00:23:18;11.53;;;9.80;;
49450;SDS011;35336;48.400;10.886;2022-08-06T00:23:33;11.80;;;9.75;;
49450;SDS011;35336;48.400;10.886;2022-08-06T00:23:49;13.47;;;10.13;;
49450;SDS011;35336;48.400;10.886;2022-08-06T00:24:04;14.07;;;10.83;;
49450;SDS011;35336;48.400;10.886;2022-08-06T00:24:20;12.45;;;10.50;;
49450;SDS011;35336;48.400;10.886;2022-08-06T00:24:36;14.10;;;10.10;;
49450;SDS011;35336;48.400;10.886;2022-08-06T00:24:51;13.43;;;9.87;;
49450;SDS011;35336;48.400;10.886;2022-08-06T00:25:07;13.05;;;9.82;;
49450;SDS011;35336;48.400;10.886;2022-08-06T00:25:24;13.65;;;10.00;;
49450;SDS011;35336;48.400;10.886;2022-08-06T00:25:39;11.40;;;9.88;;
49450;SDS011;35336;48.400;10.886;2022-08-06T00:25:55;12.60;;;10.10;;
49450;SDS011;35336;48.400;10.886;2022-08-06T00:26:10;12.73;;;10.03;;
49450;SDS011;35336;48.400;10.886;2022-08-06T00:26:26;12.45;;;10.23;;
49450;SDS011;35336;48.400;10.886;2022-08-06T00:26:41;15.13;;;10.67;;
49450;SDS011;35336;48.400;10.886;2022-08-06T00:26:56;16.17;;;10.25;;
49450;SDS011;35336;48.400;10.886;2022-08-06T00:27:12;13.77;;;9.73;;
49450;SDS011;35336;48.400;10.886;2022-08-06T00:27:27;13.00;;;10.13;;
49450;SDS011;35336;48.400;10.886;2022-08-06T00:27:43;14.40;;;10.45;;
49450;SDS011;35336;48.400;10.886;2022-08-06T00:27:58;13.83;;;10.50;;
49450;SDS011;35336;48.400;10.886;2022-08-06T00:28:13;12.00;;;10.27;;
49450;SDS011;35336;48.400;10.886;2022-08-06T00:28:29;13.07;;;10.43;;
49450;SDS011;35336;48.400;10.886;2022-08-06T00:28:44;13.73;;;10.47;;
49450;SDS011;35336;48.400;10.886;2022-08-06T00:29:00;12.82;;;10.25;;
49450;SDS011;35336;48.400;10.886;2022-08-06T00:29:15;13.70;;;10.80;;
49450;SDS011;35336;48.400;10.886;2022-08-06T00:29:31;13.85;;;11.02;;
49450;SDS011;35336;48.400;10.886;2022-08-06T00:29:46;14.03;;;10.93;;
49450;SDS011;35336;48.400;10.886;2022-08-06T00:30:02;14.82;;;11.15;;
49450;SDS011;35336;48.400;10.886;2022-08-06T00:30:22;13.63;;;11.00;;
49450;SDS011;35336;48.400;10.886;2022-08-06T00:30:37;13.27;;;10.60;;
49450;SDS011;35336;48.400;10.886;2022-08-06T00:30:53;14.20;;;10.70;;
49450;SDS011;35336;48.400;10.886;2022-08-06T00:31:08;16.25;;;11.68;;
49450;SDS011;35336;48.400;10.886;2022-08-06T00:31:23;15.37;;;11.83;;
49450;SDS011;35336;48.400;10.886;2022-08-06T00:31:39;16.33;;;11.23;;
49450;SDS011;35336;48.400;10.886;2022-08-06T00:31:55;17.83;;;11.60;;
49450;SDS011;35336;48.400;10.886;2022-08-06T00:32:10;17.87;;;11.73;;
49450;SDS011;35336;48.400;10.886;2022-08-06T00:32:26;19.10;;;11.27;;
49450;SDS011;35336;48.400;10.886;2022-08-06T00:32:41;15.88;;;10.70;;
49450;SDS011;35336;48.400;10.886;2022-08-06T00:32:56;14.40;;;10.73;;
49450;SDS011;35336;48.400;10.886;2022-08-06T00:33:12;14.35;;;10.55;;
49450;SDS011;35336;48.400;10.886;2022-08-06T00:33:28;13.47;;;10.30;;
49450;SDS011;35336;48.400;10.886;2022-08-06T00:33:43;14.15;;;10.48;;
49450;SDS011;35336;48.400;10.886;2022-08-06T00:33:59;14.82;;;10.73;;
49450;SDS011;35336;48.400;10.886;2022-08-06T00:34:16;13.32;;;10.70;;
49450;SDS011;35336;48.400;10.886;2022-08-06T00:34:31;13.13;;;10.60;;
49450;SDS011;35336;48.400;10.886;2022-08-06T00:34:47;14.60;;;10.75;;
49450;SDS011;35336;48.400;10.886;2022-08-06T00:35:03;14.37;;;10.57;;
49450;SDS011;35336;48.400;10.886;2022-08-06T00:35:19;15.45;;;10.55;;
49450;SDS011;35336;48.400;10.886;2022-08-06T00:35:35;16.13;;;10.63;;
49450;SDS011;35336;48.400;10.886;2022-08-06T00:35:51;15.13;;;10.77;;
49450;SDS011;35336;48.400;10.886;2022-08-06T00:36:06;14.50;;;10.70;;
49450;SDS011;35336;48.400;10.886;2022-08-06T00:36:23;13.93;;;10.70;;
49450;SDS011;35336;48.400;10.886;2022-08-06T00:36:41;14.45;;;11.15;;
49450;SDS011;35336;48.400;10.886;2022-08-06T00:36:57;15.30;;;11.33;;
49450;SDS011;35336;48.400;10.886;2022-08-06T00:37:12;15.98;;;11.73;;
49450;SDS011;35336;48.400;10.886;2022-08-06T00:37:28;15.60;;;11.13;;
49450;SDS011;35336;48.400;10.886;2022-08-06T00:37:44;14.23;;;10.75;;
49450;SDS011;35336;48.400;10.886;2022-08-06T00:37:59;13.25;;;11.00;;
49450;SDS011;35336;48.400;10.886;2022-08-06T00:38:14;13.90;;;10.93;;
49450;SDS011;35336;48.400;10.886;2022-08-06T00:38:30;15.47;;;11.17;;
49450;SDS011;35336;48.400;10.886;2022-08-06T00:38:45;17.17;;;11.20;;
49450;SDS011;35336;48.400;10.886;2022-08-06T00:39:02;16.63;;;11.40;;
49450;SDS011;35336;48.400;10.886;2022-08-06T00:39:19;15.77;;;11.45;;
49450;SDS011;35336;48.400;10.886;2022-08-06T00:39:35;16.27;;;11.37;;
49450;SDS011;35336;48.400;10.886;2022-08-06T00:39:50;14.32;;;11.10;;
49450;SDS011;35336;48.400;10.886;2022-08-06T00:40:06;13.23;;;11.17;;
49450;SDS011;35336;48.400;10.886;2022-08-06T00:40:22;15.73;;;11.05;;
49450;SDS011;35336;48.400;10.886;2022-08-06T00:40:37;16.40;;;10.95;;
49450;SDS011;35336;48.400;10.886;2022-08-06T00:40:54;13.95;;;11.18;;
49450;SDS011;35336;48.400;10.886;2022-08-06T00:41:10;15.35;;;11.25;;
49450;SDS011;35336;48.400;10.886;2022-08-06T00:41:26;16.73;;;10.80;;
49450;SDS011;35336;48.400;10.886;2022-08-06T00:41:44;15.23;;;11.35;;
49450;SDS011;35336;48.400;10.886;2022-08-06T00:41:59;16.67;;;12.18;;
49450;SDS011;35336;48.400;10.886;2022-08-06T00:42:15;15.67;;;11.57;;
49450;SDS011;35336;48.400;10.886;2022-08-06T00:42:31;13.02;;;10.80;;
49450;SDS011;35336;48.400;10.886;2022-08-06T00:42:46;15.07;;;10.93;;
49450;SDS011;35336;48.400;10.886;2022-08-06T00:43:02;16.75;;;11.23;;
49450;SDS011;35336;48.400;10.886;2022-08-06T00:43:18;16.20;;;11.77;;
49450;SDS011;35336;48.400;10.886;2022-08-06T00:43:34;15.35;;;11.45;;
49450;SDS011;35336;48.400;10.886;2022-08-06T00:43:50;14.77;;;11.40;;
49450;SDS011;35336;48.400;10.886;2022-08-06T00:44:06;14.33;;;10.97;;
49450;SDS011;35336;48.400;10.886;2022-08-06T00:44:21;14.85;;;11.07;;
49450;SDS011;35336;48.400;10.886;2022-08-06T00:44:37;15.00;;;11.43;;
49450;SDS011;35336;48.400;10.886;2022-08-06T00:44:53;16.30;;;11.23;;
49450;SDS011;35336;48.400;10.886;2022-08-06T00:45:08;16.67;;;11.55;;
49450;SDS011;35336;48.400;10.886;2022-08-06T00:45:24;15.70;;;11.60;;
49450;SDS011;35336;48.400;10.886;2022-08-06T00:45:39;15.63;;;11.23;;
49450;SDS011;35336;48.400;10.886;2022-08-06T00:45:55;14.90;;;10.90;;
49450;SDS011;35336;48.400;10.886;2022-08-06T00:46:10;18.45;;;11.55;;
49450;SDS011;35336;48.400;10.886;2022-08-06T00:46:27;19.48;;;11.90;;
49450;SDS011;35336;48.400;10.886;2022-08-06T00:46:42;14.23;;;10.88;;
49450;SDS011;35336;48.400;10.886;2022-08-06T00:46:58;14.13;;;10.63;;
49450;SDS011;35336;48.400;10.886;2022-08-06T00:47:14;14.15;;;10.88;;
49450;SDS011;35336;48.400;10.886;2022-08-06T00:47:30;14.37;;;10.83;;
49450;SDS011;35336;48.400;10.886;2022-08-06T00:47:45;17.10;;;11.70;;
49450;SDS011;35336;48.400;10.886;2022-08-06T00:48:00;17.92;;;12.38;;
49450;SDS011;35336;48.400;10.886;2022-08-06T00:48:16;16.93;;;12.30;;
49450;SDS011;35336;48.400;10.886;2022-08-06T00:48:31;18.27;;;12.77;;
49450;SDS011;35336;48.400;10.886;2022-08-06T00:48:47;18.10;;;12.67;;
49450;SDS011;35336;48.400;10.886;2022-08-06T00:49:02;15.77;;;12.25;;
49450;SDS011;35336;48.400;10.886;2022-08-06T00:49:18;19.73;;;12.70;;
49450;SDS011;35336;48.400;10.886;2022-08-06T00:49:33;18.43;;;12.23;;
49450;SDS011;35336;48.400;10.886;2022-08-06T00:49:48;16.02;;;11.85;;
49450;SDS011;35336;48.400;10.886;2022-08-06T00:50:04;16.50;;;12.17;;
49450;SDS011;35336;48.400;10.886;2022-08-06T00:50:20;16.60;;;12.82;;
49450;SDS011;35336;48.400;10.886;2022-08-06T00:50:35;17.97;;;13.13;;
49450;SDS011;35336;48.400;10.886;2022-08-06T00:50:51;18.60;;;13.00;;
49450;SDS011;35336;48.400;10.886;2022-08-06T00:51:06;17.90;;;12.93;;
49450;SDS011;35336;48.400;10.886;2022-08-06T00:51:22;17.13;;;12.77;;
49450;SDS011;35336;48.400;10.886;2022-08-06T00:51:39;18.95;;;12.90;;
49450;SDS011;35336;48.400;10.886;2022-08-06T00:51:55;19.98;;;13.32;;
49450;SDS011;35336;48.400;10.886;2022-08-06T00:52:10;19.02;;;13.73;;
49450;SDS011;35336;48.400;10.886;2022-08-06T00:52:26;17.80;;;12.90;;
49450;SDS011;35336;48.400;10.886;2022-08-06T00:52:41;18.35;;;12.50;;
49450;SDS011;35336;48.400;10.886;2022-08-06T00:52:59;19.70;;;13.07;;
49450;SDS011;35336;48.400;10.886;2022-08-06T00:53:15;17.35;;;12.82;;
49450;SDS011;35336;48.400;10.886;2022-08-06T00:53:31;16.30;;;12.43;;
49450;SDS011;35336;48.400;10.886;2022-08-06T00:53:46;17.35;;;12.63;;
49450;SDS011;35336;48.400;10.886;2022-08-06T00:54:02;17.47;;;13.00;;
49450;SDS011;35336;48.400;10.886;2022-08-06T00:54:20;16.52;;;13.02;;
49450;SDS011;35336;48.400;10.886;2022-08-06T00:54:36;16.27;;;12.98;;
49450;SDS011;35336;48.400;10.886;2022-08-06T00:54:51;17.73;;;12.98;;
49450;SDS011;35336;48.400;10.886;2022-08-06T00:55:07;19.53;;;13.17;;
49450;SDS011;35336;48.400;10.886;2022-08-06T00:55:23;18.23;;;12.52;;
49450;SDS011;35336;48.400;10.886;2022-08-06T00:55:39;16.40;;;12.15;;
49450;SDS011;35336;48.400;10.886;2022-08-06T00:55:54;17.20;;;12.50;;
49450;SDS011;35336;48.400;10.886;2022-08-06T00:56:10;17.93;;;12.40;;
49450;SDS011;35336;48.400;10.886;2022-08-06T00:56:26;17.38;;;12.50;;
49450;SDS011;35336;48.400;10.886;2022-08-06T00:56:41;14.70;;;11.77;;
49450;SDS011;35336;48.400;10.886;2022-08-06T00:56:56;14.52;;;11.50;;
49450;SDS011;35336;48.400;10.886;2022-08-06T00:57:12;14.93;;;11.53;;
49450;SDS011;35336;48.400;10.886;2022-08-06T00:57:27;17.33;;;11.43;;
49450;SDS011;35336;48.400;10.886;2022-08-06T00:57:43;17.47;;;11.67;;
49450;SDS011;35336;48.400;10.886;2022-08-06T00:57:58;14.53;;;11.13;;
49450;SDS011;35336;48.400;10.886;2022-08-06T00:58:14;16.77;;;10.93;;
49450;SDS011;35336;48.400;10.886;2022-08-06T00:58:29;15.93;;;11.13;;
49450;SDS011;35336;48.400;10.886;2022-08-06T00:58:45;15.50;;;11.63;;
49450;SDS011;35336;48.400;10.886;2022-08-06T00:59:00;16.13;;;11.60;;
49450;SDS011;35336;48.400;10.886;2022-08-06T00:59:16;15.10;;;11.50;;
49450;SDS011;35336;48.400;10.886;2022-08-06T00:59:31;15.83;;;11.67;;
49450;SDS011;35336;48.400;10.886;2022-08-06T00:59:47;14.23;;;10.95;;
49450;SDS011;35336;48.400;10.886;2022-08-06T01:00:03;14.23;;;10.47;;
49450;SDS011;35336;48.400;10.886;2022-08-06T01:00:19;14.97;;;10.33;;
49450;SDS011;35336;48.400;10.886;2022-08-06T01:00:35;14.82;;;10.40;;
49450;SDS011;35336;48.400;10.886;2022-08-06T01:00:50;16.03;;;10.80;;
49450;SDS011;35336;48.400;10.886;2022-08-06T01:01:06;16.27;;;11.05;;
49450;SDS011;35336;48.400;10.886;2022-08-06T01:01:23;16.00;;;11.52;;
49450;SDS011;35336;48.400;10.886;2022-08-06T01:01:38;16.07;;;11.43;;
49450;SDS011;35336;48.400;10.886;2022-08-06T01:01:53;17.93;;;11.03;;
49450;SDS011;35336;48.400;10.886;2022-08-06T01:02:09;18.67;;;11.18;;
49450;SDS011;35336;48.400;10.886;2022-08-06T01:02:25;18.13;;;12.05;;
49450;SDS011;35336;48.400;10.886;2022-08-06T01:02:40;17.50;;;11.93;;
49450;SDS011;35336;48.400;10.886;2022-08-06T01:02:55;16.40;;;11.90;;
49450;SDS011;35336;48.400;10.886;2022-08-06T01:03:11;15.50;;;12.13;;
49450;SDS011;35336;48.400;10.886;2022-08-06T01:03:26;15.80;;;12.07;;
49450;SDS011;35336;48.400;10.886;2022-08-06T01:03:42;17.48;;;11.77;;
49450;SDS011;35336;48.400;10.886;2022-08-06T01:03:58;18.48;;;11.90;;
49450;SDS011;35336;48.400;10.886;2022-08-06T01:04:13;17.13;;;11.97;;
49450;SDS011;35336;48.400;10.886;2022-08-06T01:04:29;15.57;;;11.43;;
49450;SDS011;35336;48.400;10.886;2022-08-06T01:04:44;15.53;;;11.30;;
49450;SDS011;35336;48.400;10.886;2022-08-06T01:05:00;14.25;;;10.70;;
49450;SDS011;35336;48.400;10.886;2022-08-06T01:05:16;14.83;;;11.00;;
49450;SDS011;35336;48.400;10.886;2022-08-06T01:05:31;15.30;;;11.53;;
49450;SDS011;35336;48.400;10.886;2022-08-06T01:05:47;18.07;;;11.93;;
49450;SDS011;35336;48.400;10.886;2022-08-06T01:06:02;19.00;;;12.50;;
49450;SDS011;35336;48.400;10.886;2022-08-06T01:06:19;20.63;;;13.20;;
49450;SDS011;35336;48.400;10.886;2022-08-06T01:06:35;21.15;;;13.25;;
49450;SDS011;35336;48.400;10.886;2022-08-06T01:06:50;17.50;;;12.43;;
49450;SDS011;35336;48.400;10.886;2022-08-06T01:07:05;18.53;;;12.43;;
49450;SDS011;35336;48.400;10.886;2022-08-06T01:07:21;15.90;;;11.77;;
49450;SDS011;35336;48.400;10.886;2022-08-06T01:07:36;16.07;;;12.00;;
49450;SDS011;35336;48.400;10.886;2022-08-06T01:07:52;17.27;;;11.85;;
49450;SDS011;35336;48.400;10.886;2022-08-06T01:08:09;16.10;;;11.43;;
49450;SDS011;35336;48.400;10.886;2022-08-06T01:08:25;14.68;;;11.30;;
49450;SDS011;35336;48.400;10.886;2022-08-06T01:08:41;14.30;;;10.83;;
49450;SDS011;35336;48.400;10.886;2022-08-06T01:08:56;15.57;;;11.43;;
49450;SDS011;35336;48.400;10.886;2022-08-06T01:09:11;16.37;;;11.87;;
49450;SDS011;35336;48.400;10.886;2022-08-06T01:09:27;16.90;;;11.18;;
49450;SDS011;35336;48.400;10.886;2022-08-06T01:09:42;14.07;;;10.47;;
49450;SDS011;35336;48.400;10.886;2022-08-06T01:09:58;14.32;;;10.25;;
49450;SDS011;35336;48.400;10.886;2022-08-06T01:10:13;14.77;;;9.63;;
49450;SDS011;35336;48.400;10.886;2022-08-06T01:10:29;12.33;;;9.47;;
49450;SDS011;35336;48.400;10.886;2022-08-06T01:10:44;13.85;;;9.57;;
49450;SDS011;35336;48.400;10.886;2022-08-06T01:11:00;14.68;;;9.95;;
49450;SDS011;35336;48.400;10.886;2022-08-06T01:11:15;16.07;;;10.30;;
49450;SDS011;35336;48.400;10.886;2022-08-06T01:11:31;16.92;;;10.43;;
49450;SDS011;35336;48.400;10.886;2022-08-06T01:11:46;16.20;;;10.50;;
49450;SDS011;35336;48.400;10.886;2022-08-06T01:12:02;16.67;;;10.75;;
49450;SDS011;35336;48.400;10.886;2022-08-06T01:12:18;15.52;;;10.27;;
49450;SDS011;35336;48.400;10.886;2022-08-06T01:12:33;15.00;;;10.03;;
49450;SDS011;35336;48.400;10.886;2022-08-06T01:12:49;14.13;;;10.30;;
49450;SDS011;35336;48.400;10.886;2022-08-06T01:13:04;13.63;;;10.55;;
49450;SDS011;35336;48.400;10.886;2022-08-06T01:13:20;13.33;;;10.50;;
49450;SDS011;35336;48.400;10.886;2022-08-06T01:13:35;13.32;;;10.15;;
49450;SDS011;35336;48.400;10.886;2022-08-06T01:13:51;13.07;;;10.13;;
49450;SDS011;35336;48.400;10.886;2022-08-06T01:14:06;12.85;;;10.02;;
49450;SDS011;35336;48.400;10.886;2022-08-06T01:14:22;15.82;;;10.50;;
49450;SDS011;35336;48.400;10.886;2022-08-06T01:14:37;15.03;;;10.00;;
49450;SDS011;35336;48.400;10.886;2022-08-06T01:14:53;12.27;;;9.70;;
49450;SDS011;35336;48.400;10.886;2022-08-06T01:15:08;13.23;;;10.52;;
49450;SDS011;35336;48.400;10.886;2022-08-06T01:15:24;13.40;;;10.50;;
49450;SDS011;35336;48.400;10.886;2022-08-06T01:15:40;13.57;;;9.70;;
49450;SDS011;35336;48.400;10.886;2022-08-06T01:16:48;13.68;;;10.05;;
49450;SDS011;35336;48.400;10.886;2022-08-06T01:17:37;14.80;;;11.05;;
49450;SDS011;35336;48.400;10.886;2022-08-06T01:18:03;12.95;;;10.35;;
49450;SDS011;35336;48.400;10.886;2022-08-06T01:18:27;13.38;;;9.50;;
49450;SDS011;35336;48.400;10.886;2022-08-06T01:18:51;15.43;;;10.32;;
49450;SDS011;35336;48.400;10.886;2022-08-06T01:19:17;13.50;;;10.68;;
49450;SDS011;35336;48.400;10.886;2022-08-06T01:19:47;15.85;;;11.60;;
49450;SDS011;35336;48.400;10.886;2022-08-06T01:20:57;14.15;;;10.73;;
49450;SDS011;35336;48.400;10.886;2022-08-06T01:23:59;11.90;;;9.93;;
49450;SDS011;35336;48.400;10.886;2022-08-06T01:24:43;13.57;;;9.63;;
49450;SDS011;35336;48.400;10.886;2022-08-06T01:25:23;13.48;;;9.93;;
49450;SDS011;35336;48.400;10.886;2022-08-06T01:26:21;14.50;;;10.10;;
49450;SDS011;35336;48.400;10.886;2022-08-06T01:26:50;13.95;;;9.82;;
49450;SDS011;35336;48.400;10.886;2022-08-06T01:27:29;15.02;;;10.65;;
49450;SDS011;35336;48.400;10.886;2022-08-06T01:28:26;14.85;;;10.52;;
49450;SDS011;35336;48.400;10.886;2022-08-06T01:28:49;14.75;;;10.02;;
49450;SDS011;35336;48.400;10.886;2022-08-06T01:29:33;14.38;;;10.13;;
49450;SDS011;35336;48.400;10.886;2022-08-06T01:29:55;15.57;;;10.32;;
49450;SDS011;35336;48.400;10.886;2022-08-06T01:30:17;12.60;;;9.80;;
49450;SDS011;35336;48.400;10.886;2022-08-06T01:30:35;13.63;;;9.82;;
49450;SDS011;35336;48.400;10.886;2022-08-06T01:31:04;14.27;;;10.55;;
49450;SDS011;35336;48.400;10.886;2022-08-06T01:31:27;14.13;;;10.43;;
49450;SDS011;35336;48.400;10.886;2022-08-06T01:31:54;14.52;;;10.50;;
49450;SDS011;35336;48.400;10.886;2022-08-06T01:32:18;13.65;;;9.90;;
49450;SDS011;35336;48.400;10.886;2022-08-06T01:32:47;13.95;;;10.00;;
49450;SDS011;35336;48.400;10.886;2022-08-06T01:33:07;13.18;;;10.10;;
49450;SDS011;35336;48.400;10.886;2022-08-06T01:33:31;13.18;;;9.77;;
49450;SDS011;35336;48.400;10.886;2022-08-06T01:33:52;14.18;;;10.20;;
49450;SDS011;35336;48.400;10.886;2022-08-06T01:34:16;17.23;;;10.18;;
49450;SDS011;35336;48.400;10.886;2022-08-06T01:34:39;16.88;;;9.98;;
49450;SDS011;35336;48.400;10.886;2022-08-06T01:35:17;14.23;;;10.30;;
49450;SDS011;35336;48.400;10.886;2022-08-06T01:35:38;14.90;;;10.20;;
49450;SDS011;35336;48.400;10.886;2022-08-06T01:35:58;12.80;;;9.60;;
49450;SDS011;35336;48.400;10.886;2022-08-06T01:36:39;14.23;;;9.80;;
49450;SDS011;35336;48.400;10.886;2022-08-06T01:37:02;15.60;;;9.95;;
49450;SDS011;35336;48.400;10.886;2022-08-06T01:37:26;14.05;;;9.90;;
49450;SDS011;35336;48.400;10.886;2022-08-06T01:38:46;13.90;;;9.00;;
49450;SDS011;35336;48.400;10.886;2022-08-06T01:39:04;15.17;;;9.03;;
49450;SDS011;35336;48.400;10.886;2022-08-06T01:39:19;15.38;;;9.77;;
49450;SDS011;35336;48.400;10.886;2022-08-06T01:39:37;15.55;;;9.98;;
49450;SDS011;35336;48.400;10.886;2022-08-06T01:39:57;15.98;;;9.98;;
49450;SDS011;35336;48.400;10.886;2022-08-06T01:40:18;14.23;;;9.40;;
49450;SDS011;35336;48.400;10.886;2022-08-06T01:40:37;15.00;;;9.38;;
49450;SDS011;35336;48.400;10.886;2022-08-06T01:40:58;15.52;;;9.02;;
49450;SDS011;35336;48.400;10.886;2022-08-06T01:41:18;12.05;;;9.25;;
49450;SDS011;35336;48.400;10.886;2022-08-06T01:41:55;13.65;;;9.48;;
49450;SDS011;35336;48.400;10.886;2022-08-06T01:42:12;14.82;;;9.60;;
49450;SDS011;35336;48.400;10.886;2022-08-06T01:42:31;13.77;;;9.20;;
49450;SDS011;35336;48.400;10.886;2022-08-06T01:42:48;13.38;;;9.40;;
49450;SDS011;35336;48.400;10.886;2022-08-06T01:43:06;14.02;;;9.52;;
49450;SDS011;35336;48.400;10.886;2022-08-06T01:43:23;11.57;;;8.15;;
49450;SDS011;35336;48.400;10.886;2022-08-06T01:43:41;11.57;;;8.32;;
49450;SDS011;35336;48.400;10.886;2022-08-06T01:43:58;13.00;;;8.85;;
49450;SDS011;35336;48.400;10.886;2022-08-06T01:44:16;13.43;;;8.60;;
49450;SDS011;35336;48.400;10.886;2022-08-06T01:44:36;12.70;;;8.45;;
49450;SDS011;35336;48.400;10.886;2022-08-06T01:44:54;11.32;;;8.38;;
49450;SDS011;35336;48.400;10.886;2022-08-06T01:45:17;12.38;;;8.13;;
49450;SDS011;35336;48.400;10.886;2022-08-06T01:45:34;12.63;;;8.45;;